Sultan Atasoy — TCYG9 — position and weather

sailwx.info

Track history (hours):
 
Tides and Currents Weather Stations Pressure Air Temp Water Temp Dewpoint Dewpoint Depression Visibility Wind Speed Wind Dir Waves Ship Positions

Sultan Atasoy

Last reported at 2017-Dec-03 20:57 UTC. Time now 2017-Dec-15 14:21 UTC.
Position N 36°42' E 027°19'.
Warning: this ship's position is 11 days out of date.

Length 109 m; draft 7.2 m.

Type: Ship. MMSI: 271040963.

Date/timePositionNaut miles runAvg speedWind from/ knotsBaromVisibWave heightAir tempDewpointWater temp
2017-Dec-03 20:57N 36°42' E 027°19'34 8.6
2017-Dec-03 16:57N 37°12' E 026°58'510.0
2017-Dec-03 16:27N 37°16' E 026°56'4 9.8
2017-Dec-03 16:00N 37°20' E 026°54'5 9.8
2017-Dec-03 15:30N 37°25' E 026°50'510.0
2017-Dec-03 15:01N 37°28' E 026°47'510.1
2017-Dec-03 14:31N 37°32' E 026°42'510.0
2017-Dec-03 14:01N 37°36' E 026°38'5 9.6
2017-Dec-03 13:30N 37°39' E 026°34'9 9.3
2017-Dec-03 12:34N 37°47' E 026°28'1 9.0
2017-Dec-03 12:30N 37°47' E 026°28'5 9.3
2017-Dec-03 12:01N 37°52' E 026°26'6 9.4
2017-Dec-03 11:23N 37°57' E 026°22'58 9.2
2017-Dec-03 05:04N 38°52' E 025°60'1 9.0
2017-Dec-03 05:00N 38°53' E 025°60'  
Track history (hours):
 
Tides and Currents Weather Stations Pressure Air Temp Water Temp Dewpoint Dewpoint Depression Visibility Wind Speed Wind Dir Waves Ship Positions

Sultan Atasoy

Last reported at 2017-Dec-03 20:57 UTC. Time now 2017-Dec-15 14:21 UTC.
Position N 36°42' E 027°19'.
Warning: this ship's position is 11 days out of date.

Length 109 m; draft 7.2 m.

Type: Ship. MMSI: 271040963.

Date/timePositionNaut miles runAvg speedWind from/ knotsBaromVisibWave heightAir tempDewpointWater temp
2017-Dec-03 20:57N 36°42' E 027°19'34 8.6
2017-Dec-03 16:57N 37°12' E 026°58'510.0
2017-Dec-03 16:27N 37°16' E 026°56'4 9.8
2017-Dec-03 16:00N 37°20' E 026°54'5 9.8
2017-Dec-03 15:30N 37°25' E 026°50'510.0
2017-Dec-03 15:01N 37°28' E 026°47'510.1
2017-Dec-03 14:31N 37°32' E 026°42'510.0
2017-Dec-03 14:01N 37°36' E 026°38'5 9.6
2017-Dec-03 13:30N 37°39' E 026°34'9 9.3
2017-Dec-03 12:34N 37°47' E 026°28'1 9.0
2017-Dec-03 12:30N 37°47' E 026°28'5 9.3
2017-Dec-03 12:01N 37°52' E 026°26'6 9.4
2017-Dec-03 11:23N 37°57' E 026°22'58 9.2
2017-Dec-03 05:04N 38°52' E 025°60'1 9.0
2017-Dec-03 05:00N 38°53' E 025°60'  

Dump ship's entire track history